sensor_id;sensor_type;location;lat;lon;timestamp;P1;durP1;ratioP1;P2;durP2;ratioP2
29358;SDS011;16347;53.232;6.556;2023-04-25T00:01:46;26.40;;;4.63;;
29358;SDS011;16347;53.232;6.556;2023-04-25T00:04:14;20.55;;;3.83;;
29358;SDS011;16347;53.232;6.556;2023-04-25T00:06:42;33.55;;;4.00;;
29358;SDS011;16347;53.232;6.556;2023-04-25T00:09:10;25.00;;;4.55;;
29358;SDS011;16347;53.232;6.556;2023-04-25T00:11:39;30.95;;;4.57;;
29358;SDS011;16347;53.232;6.556;2023-04-25T00:14:08;23.30;;;3.90;;
29358;SDS011;16347;53.232;6.556;2023-04-25T00:16:36;34.72;;;4.25;;
29358;SDS011;16347;53.232;6.556;2023-04-25T00:19:04;41.67;;;4.50;;
29358;SDS011;16347;53.232;6.556;2023-04-25T00:21:32;29.05;;;4.88;;
29358;SDS011;16347;53.232;6.556;2023-04-25T00:24:01;15.57;;;3.72;;
29358;SDS011;16347;53.232;6.556;2023-04-25T00:26:30;31.35;;;3.72;;
29358;SDS011;16347;53.232;6.556;2023-04-25T00:28:59;16.00;;;3.17;;
29358;SDS011;16347;53.232;6.556;2023-04-25T00:31:27;27.05;;;3.20;;
29358;SDS011;16347;53.232;6.556;2023-04-25T00:33:56;18.88;;;3.20;;
29358;SDS011;16347;53.232;6.556;2023-04-25T00:36:24;14.88;;;2.95;;
29358;SDS011;16347;53.232;6.556;2023-04-25T00:38:55;12.43;;;2.88;;
29358;SDS011;16347;53.232;6.556;2023-04-25T00:41:23;19.13;;;3.22;;
29358;SDS011;16347;53.232;6.556;2023-04-25T00:43:53;20.85;;;2.95;;
29358;SDS011;16347;53.232;6.556;2023-04-25T00:46:24;16.33;;;3.20;;
29358;SDS011;16347;53.232;6.556;2023-04-25T00:48:52;15.40;;;2.78;;
29358;SDS011;16347;53.232;6.556;2023-04-25T00:51:21;19.55;;;3.10;;
29358;SDS011;16347;53.232;6.556;2023-04-25T00:53:49;20.63;;;3.25;;
29358;SDS011;16347;53.232;6.556;2023-04-25T00:56:18;23.08;;;3.35;;
29358;SDS011;16347;53.232;6.556;2023-04-25T00:58:46;23.48;;;3.22;;
29358;SDS011;16347;53.232;6.556;2023-04-25T01:01:15;14.40;;;2.55;;
29358;SDS011;16347;53.232;6.556;2023-04-25T01:03:45;22.58;;;3.10;;
29358;SDS011;16347;53.232;6.556;2023-04-25T01:06:14;10.35;;;2.58;;
29358;SDS011;16347;53.232;6.556;2023-04-25T01:08:42;18.33;;;2.80;;
29358;SDS011;16347;53.232;6.556;2023-04-25T01:11:10;17.83;;;3.03;;
29358;SDS011;16347;53.232;6.556;2023-04-25T01:13:38;19.55;;;2.72;;
29358;SDS011;16347;53.232;6.556;2023-04-25T01:16:06;26.80;;;2.83;;
29358;SDS011;16347;53.232;6.556;2023-04-25T01:18:34;16.38;;;2.85;;
29358;SDS011;16347;53.232;6.556;2023-04-25T01:21:08;14.80;;;2.30;;
29358;SDS011;16347;53.232;6.556;2023-04-25T01:23:37;27.10;;;2.92;;
29358;SDS011;16347;53.232;6.556;2023-04-25T01:26:06;18.35;;;2.53;;
29358;SDS011;16347;53.232;6.556;2023-04-25T01:28:36;18.75;;;3.28;;
29358;SDS011;16347;53.232;6.556;2023-04-25T01:31:08;17.23;;;2.60;;
29358;SDS011;16347;53.232;6.556;2023-04-25T01:33:37;27.90;;;3.28;;
29358;SDS011;16347;53.232;6.556;2023-04-25T01:36:05;15.65;;;2.75;;
29358;SDS011;16347;53.232;6.556;2023-04-25T01:38:35;18.90;;;2.60;;
29358;SDS011;16347;53.232;6.556;2023-04-25T01:41:03;17.88;;;2.88;;
29358;SDS011;16347;53.232;6.556;2023-04-25T01:43:32;19.98;;;3.05;;
29358;SDS011;16347;53.232;6.556;2023-04-25T01:46:00;20.20;;;2.72;;
29358;SDS011;16347;53.232;6.556;2023-04-25T01:48:29;20.95;;;3.28;;
29358;SDS011;16347;53.232;6.556;2023-04-25T01:50:57;22.75;;;3.50;;
29358;SDS011;16347;53.232;6.556;2023-04-25T01:53:28;22.42;;;3.38;;
29358;SDS011;16347;53.232;6.556;2023-04-25T01:55:58;14.48;;;2.90;;
29358;SDS011;16347;53.232;6.556;2023-04-25T01:58:31;22.38;;;3.22;;
29358;SDS011;16347;53.232;6.556;2023-04-25T02:01:01;16.30;;;2.60;;
29358;SDS011;16347;53.232;6.556;2023-04-25T02:03:37;20.58;;;3.25;;
29358;SDS011;16347;53.232;6.556;2023-04-25T02:06:11;21.83;;;2.70;;
29358;SDS011;16347;53.232;6.556;2023-04-25T02:08:44;26.17;;;3.45;;
29358;SDS011;16347;53.232;6.556;2023-04-25T02:11:12;23.15;;;3.28;;
29358;SDS011;16347;53.232;6.556;2023-04-25T02:13:47;26.67;;;3.90;;
29358;SDS011;16347;53.232;6.556;2023-04-25T02:16:34;16.60;;;2.63;;
29358;SDS011;16347;53.232;6.556;2023-04-25T02:19:02;26.30;;;2.75;;
29358;SDS011;16347;53.232;6.556;2023-04-25T02:21:30;18.95;;;3.47;;
29358;SDS011;16347;53.232;6.556;2023-04-25T02:23:59;15.55;;;2.63;;
29358;SDS011;16347;53.232;6.556;2023-04-25T02:26:28;28.85;;;3.20;;
29358;SDS011;16347;53.232;6.556;2023-04-25T02:28:56;24.00;;;3.33;;
29358;SDS011;16347;53.232;6.556;2023-04-25T02:31:24;21.98;;;2.80;;
29358;SDS011;16347;53.232;6.556;2023-04-25T02:33:53;14.90;;;2.65;;
29358;SDS011;16347;53.232;6.556;2023-04-25T02:36:21;26.33;;;2.83;;
29358;SDS011;16347;53.232;6.556;2023-04-25T02:38:50;14.63;;;2.88;;
29358;SDS011;16347;53.232;6.556;2023-04-25T02:41:21;14.07;;;2.83;;
29358;SDS011;16347;53.232;6.556;2023-04-25T02:43:49;18.73;;;2.60;;
29358;SDS011;16347;53.232;6.556;2023-04-25T02:46:17;19.35;;;2.60;;
29358;SDS011;16347;53.232;6.556;2023-04-25T02:49:03;21.13;;;3.20;;
29358;SDS011;16347;53.232;6.556;2023-04-25T02:51:31;18.52;;;2.55;;
29358;SDS011;16347;53.232;6.556;2023-04-25T02:54:00;16.48;;;3.33;;
29358;SDS011;16347;53.232;6.556;2023-04-25T02:56:30;26.27;;;2.67;;
29358;SDS011;16347;53.232;6.556;2023-04-25T02:58:58;11.48;;;2.10;;
29358;SDS011;16347;53.232;6.556;2023-04-25T03:01:27;15.57;;;2.70;;
29358;SDS011;16347;53.232;6.556;2023-04-25T03:03:54;19.98;;;2.83;;
29358;SDS011;16347;53.232;6.556;2023-04-25T03:06:23;20.60;;;2.42;;
29358;SDS011;16347;53.232;6.556;2023-04-25T03:08:51;20.23;;;3.25;;
29358;SDS011;16347;53.232;6.556;2023-04-25T03:11:19;16.67;;;2.55;;
29358;SDS011;16347;53.232;6.556;2023-04-25T03:13:49;16.48;;;2.38;;
29358;SDS011;16347;53.232;6.556;2023-04-25T03:16:18;4.93;;;1.60;;
29358;SDS011;16347;53.232;6.556;2023-04-25T03:18:46;22.55;;;2.50;;
29358;SDS011;16347;53.232;6.556;2023-04-25T03:21:14;16.52;;;2.83;;
29358;SDS011;16347;53.232;6.556;2023-04-25T03:23:43;19.30;;;3.15;;
29358;SDS011;16347;53.232;6.556;2023-04-25T03:26:11;20.10;;;2.30;;
29358;SDS011;16347;53.232;6.556;2023-04-25T03:28:42;12.55;;;2.10;;
29358;SDS011;16347;53.232;6.556;2023-04-25T03:31:11;17.67;;;2.58;;
29358;SDS011;16347;53.232;6.556;2023-04-25T03:33:39;13.57;;;2.05;;
29358;SDS011;16347;53.232;6.556;2023-04-25T03:36:07;10.25;;;2.28;;
29358;SDS011;16347;53.232;6.556;2023-04-25T03:38:35;15.00;;;2.33;;
29358;SDS011;16347;53.232;6.556;2023-04-25T03:41:05;29.27;;;2.83;;
29358;SDS011;16347;53.232;6.556;2023-04-25T03:43:51;12.40;;;2.20;;
29358;SDS011;16347;53.232;6.556;2023-04-25T03:46:21;22.65;;;2.47;;
29358;SDS011;16347;53.232;6.556;2023-04-25T03:48:49;17.85;;;2.60;;
29358;SDS011;16347;53.232;6.556;2023-04-25T03:51:21;28.95;;;3.13;;
29358;SDS011;16347;53.232;6.556;2023-04-25T03:53:49;18.80;;;2.78;;
29358;SDS011;16347;53.232;6.556;2023-04-25T03:56:29;18.73;;;2.78;;
29358;SDS011;16347;53.232;6.556;2023-04-25T03:59:04;16.85;;;3.10;;
29358;SDS011;16347;53.232;6.556;2023-04-25T04:01:34;24.90;;;2.63;;
29358;SDS011;16347;53.232;6.556;2023-04-25T04:04:03;19.10;;;2.85;;
29358;SDS011;16347;53.232;6.556;2023-04-25T04:06:31;20.40;;;2.38;;
29358;SDS011;16347;53.232;6.556;2023-04-25T04:09:14;13.90;;;2.33;;
29358;SDS011;16347;53.232;6.556;2023-04-25T04:11:43;11.38;;;2.15;;
29358;SDS011;16347;53.232;6.556;2023-04-25T04:14:11;16.90;;;3.20;;
29358;SDS011;16347;53.232;6.556;2023-04-25T04:16:44;13.50;;;1.92;;
29358;SDS011;16347;53.232;6.556;2023-04-25T04:19:12;11.65;;;2.03;;
29358;SDS011;16347;53.232;6.556;2023-04-25T04:21:46;20.80;;;3.13;;
29358;SDS011;16347;53.232;6.556;2023-04-25T04:24:14;12.93;;;2.55;;
29358;SDS011;16347;53.232;6.556;2023-04-25T04:26:51;20.55;;;2.55;;
29358;SDS011;16347;53.232;6.556;2023-04-25T04:29:29;13.82;;;2.47;;
29358;SDS011;16347;53.232;6.556;2023-04-25T04:32:24;14.25;;;2.67;;
29358;SDS011;16347;53.232;6.556;2023-04-25T04:34:54;24.02;;;2.47;;
29358;SDS011;16347;53.232;6.556;2023-04-25T04:37:23;8.95;;;2.13;;
29358;SDS011;16347;53.232;6.556;2023-04-25T04:39:51;21.48;;;3.28;;
29358;SDS011;16347;53.232;6.556;2023-04-25T04:42:26;23.80;;;2.72;;
29358;SDS011;16347;53.232;6.556;2023-04-25T04:45:13;12.00;;;2.33;;
29358;SDS011;16347;53.232;6.556;2023-04-25T04:48:02;18.77;;;3.65;;
29358;SDS011;16347;53.232;6.556;2023-04-25T04:50:53;17.67;;;2.38;;
29358;SDS011;16347;53.232;6.556;2023-04-25T04:53:43;17.92;;;2.58;;
29358;SDS011;16347;53.232;6.556;2023-04-25T04:56:34;9.60;;;1.98;;
29358;SDS011;16347;53.232;6.556;2023-04-25T04:59:16;19.45;;;2.92;;
29358;SDS011;16347;53.232;6.556;2023-04-25T05:02:03;15.68;;;2.75;;
29358;SDS011;16347;53.232;6.556;2023-04-25T05:04:56;12.43;;;2.13;;
29358;SDS011;16347;53.232;6.556;2023-04-25T05:07:35;5.50;;;1.77;;
29358;SDS011;16347;53.232;6.556;2023-04-25T05:10:22;10.95;;;1.45;;
29358;SDS011;16347;53.232;6.556;2023-04-25T05:13:10;18.73;;;2.60;;
29358;SDS011;16347;53.232;6.556;2023-04-25T05:15:54;8.52;;;1.45;;
29358;SDS011;16347;53.232;6.556;2023-04-25T05:18:34;5.82;;;1.30;;
29358;SDS011;16347;53.232;6.556;2023-04-25T05:21:17;8.77;;;1.38;;
29358;SDS011;16347;53.232;6.556;2023-04-25T05:24:06;7.05;;;1.67;;
29358;SDS011;16347;53.232;6.556;2023-04-25T05:27:00;4.15;;;1.00;;
29358;SDS011;16347;53.232;6.556;2023-04-25T05:29:44;7.60;;;1.25;;
29358;SDS011;16347;53.232;6.556;2023-04-25T05:32:35;7.63;;;1.27;;
29358;SDS011;16347;53.232;6.556;2023-04-25T05:35:04;5.50;;;1.45;;
29358;SDS011;16347;53.232;6.556;2023-04-25T05:37:41;12.63;;;1.90;;
29358;SDS011;16347;53.232;6.556;2023-04-25T05:40:12;3.50;;;1.13;;
29358;SDS011;16347;53.232;6.556;2023-04-25T05:42:56;14.48;;;2.38;;
29358;SDS011;16347;53.232;6.556;2023-04-25T05:45:49;11.45;;;1.80;;
29358;SDS011;16347;53.232;6.556;2023-04-25T05:48:29;6.40;;;1.63;;
29358;SDS011;16347;53.232;6.556;2023-04-25T05:51:08;11.40;;;1.60;;
29358;SDS011;16347;53.232;6.556;2023-04-25T05:53:47;8.98;;;1.88;;
29358;SDS011;16347;53.232;6.556;2023-04-25T05:56:15;7.32;;;2.03;;
29358;SDS011;16347;53.232;6.556;2023-04-25T05:58:45;8.75;;;1.75;;
29358;SDS011;16347;53.232;6.556;2023-04-25T06:01:13;15.10;;;1.88;;
29358;SDS011;16347;53.232;6.556;2023-04-25T06:03:42;5.53;;;1.35;;
29358;SDS011;16347;53.232;6.556;2023-04-25T06:06:11;8.27;;;1.55;;
29358;SDS011;16347;53.232;6.556;2023-04-25T06:08:39;11.02;;;1.75;;
29358;SDS011;16347;53.232;6.556;2023-04-25T06:11:11;11.65;;;1.75;;
29358;SDS011;16347;53.232;6.556;2023-04-25T06:13:40;11.25;;;1.40;;
29358;SDS011;16347;53.232;6.556;2023-04-25T06:16:08;6.93;;;1.27;;
29358;SDS011;16347;53.232;6.556;2023-04-25T06:18:36;6.22;;;1.55;;
29358;SDS011;16347;53.232;6.556;2023-04-25T06:21:05;8.05;;;2.00;;
29358;SDS011;16347;53.232;6.556;2023-04-25T06:23:33;10.18;;;1.70;;
29358;SDS011;16347;53.232;6.556;2023-04-25T06:26:03;8.05;;;1.35;;
29358;SDS011;16347;53.232;6.556;2023-04-25T06:28:34;16.00;;;1.65;;
29358;SDS011;16347;53.232;6.556;2023-04-25T06:31:02;15.60;;;1.83;;
29358;SDS011;16347;53.232;6.556;2023-04-25T06:33:30;7.18;;;1.65;;
29358;SDS011;16347;53.232;6.556;2023-04-25T06:35:58;10.32;;;1.50;;
29358;SDS011;16347;53.232;6.556;2023-04-25T06:38:27;14.95;;;1.67;;
29358;SDS011;16347;53.232;6.556;2023-04-25T06:40:56;16.38;;;1.90;;
29358;SDS011;16347;53.232;6.556;2023-04-25T06:43:27;8.57;;;1.65;;
29358;SDS011;16347;53.232;6.556;2023-04-25T06:46:19;20.70;;;1.65;;
29358;SDS011;16347;53.232;6.556;2023-04-25T06:48:48;13.25;;;2.10;;
29358;SDS011;16347;53.232;6.556;2023-04-25T06:51:18;11.45;;;2.25;;
29358;SDS011;16347;53.232;6.556;2023-04-25T06:56:27;10.40;;;1.67;;
29358;SDS011;16347;53.232;6.556;2023-04-25T06:59:10;13.23;;;1.95;;
29358;SDS011;16347;53.232;6.556;2023-04-25T07:01:41;9.35;;;1.35;;
29358;SDS011;16347;53.232;6.556;2023-04-25T07:04:17;11.73;;;1.50;;
29358;SDS011;16347;53.232;6.556;2023-04-25T07:06:53;13.48;;;1.80;;
29358;SDS011;16347;53.232;6.556;2023-04-25T07:09:29;12.57;;;2.00;;
29358;SDS011;16347;53.232;6.556;2023-04-25T07:12:00;9.40;;;1.88;;
29358;SDS011;16347;53.232;6.556;2023-04-25T07:14:29;8.40;;;1.48;;
29358;SDS011;16347;53.232;6.556;2023-04-25T07:16:58;8.90;;;1.50;;
29358;SDS011;16347;53.232;6.556;2023-04-25T07:19:31;7.72;;;1.45;;
29358;SDS011;16347;53.232;6.556;2023-04-25T07:22:00;4.72;;;1.05;;
29358;SDS011;16347;53.232;6.556;2023-04-25T07:24:30;4.22;;;1.02;;
29358;SDS011;16347;53.232;6.556;2023-04-25T07:26:59;6.70;;;1.58;;
29358;SDS011;16347;53.232;6.556;2023-04-25T07:29:46;13.00;;;1.65;;
29358;SDS011;16347;53.232;6.556;2023-04-25T07:32:15;11.45;;;1.70;;
29358;SDS011;16347;53.232;6.556;2023-04-25T07:34:43;8.30;;;2.05;;
29358;SDS011;16347;53.232;6.556;2023-04-25T07:37:11;14.90;;;1.85;;
29358;SDS011;16347;53.232;6.556;2023-04-25T07:42:23;10.43;;;1.52;;
29358;SDS011;16347;53.232;6.556;2023-04-25T07:44:51;10.70;;;1.20;;
29358;SDS011;16347;53.232;6.556;2023-04-25T07:47:22;11.07;;;1.42;;
29358;SDS011;16347;53.232;6.556;2023-04-25T07:49:51;5.93;;;1.20;;
29358;SDS011;16347;53.232;6.556;2023-04-25T07:52:20;10.07;;;1.38;;
29358;SDS011;16347;53.232;6.556;2023-04-25T07:57:29;7.97;;;1.50;;
29358;SDS011;16347;53.232;6.556;2023-04-25T07:59:57;11.05;;;1.35;;
29358;SDS011;16347;53.232;6.556;2023-04-25T08:02:29;11.65;;;1.73;;
29358;SDS011;16347;53.232;6.556;2023-04-25T08:04:58;17.52;;;1.77;;
29358;SDS011;16347;53.232;6.556;2023-04-25T08:07:27;21.17;;;2.25;;
29358;SDS011;16347;53.232;6.556;2023-04-25T08:10:01;4.68;;;1.30;;
29358;SDS011;16347;53.232;6.556;2023-04-25T08:12:32;5.32;;;0.80;;
29358;SDS011;16347;53.232;6.556;2023-04-25T08:15:03;7.78;;;1.08;;
29358;SDS011;16347;53.232;6.556;2023-04-25T08:17:38;5.30;;;1.00;;
29358;SDS011;16347;53.232;6.556;2023-04-25T08:20:07;6.32;;;1.00;;
29358;SDS011;16347;53.232;6.556;2023-04-25T08:22:36;5.40;;;1.23;;
29358;SDS011;16347;53.232;6.556;2023-04-25T08:25:31;4.53;;;0.85;;
29358;SDS011;16347;53.232;6.556;2023-04-25T08:27:59;2.45;;;0.77;;
29358;SDS011;16347;53.232;6.556;2023-04-25T08:30:30;7.05;;;1.40;;
29358;SDS011;16347;53.232;6.556;2023-04-25T08:33:00;4.05;;;0.80;;
29358;SDS011;16347;53.232;6.556;2023-04-25T08:35:47;3.03;;;0.57;;
29358;SDS011;16347;53.232;6.556;2023-04-25T08:38:16;4.07;;;0.93;;
29358;SDS011;16347;53.232;6.556;2023-04-25T08:40:45;8.52;;;1.02;;
29358;SDS011;16347;53.232;6.556;2023-04-25T08:43:19;7.40;;;0.95;;
29358;SDS011;16347;53.232;6.556;2023-04-25T08:45:48;4.35;;;1.00;;
29358;SDS011;16347;53.232;6.556;2023-04-25T08:48:30;5.00;;;0.68;;
29358;SDS011;16347;53.232;6.556;2023-04-25T08:51:03;5.50;;;0.98;;
29358;SDS011;16347;53.232;6.556;2023-04-25T08:53:37;4.88;;;1.63;;
29358;SDS011;16347;53.232;6.556;2023-04-25T08:56:09;16.70;;;1.77;;
29358;SDS011;16347;53.232;6.556;2023-04-25T08:58:40;10.45;;;1.63;;
29358;SDS011;16347;53.232;6.556;2023-04-25T09:01:09;12.15;;;1.88;;
29358;SDS011;16347;53.232;6.556;2023-04-25T09:03:47;5.85;;;1.25;;
29358;SDS011;16347;53.232;6.556;2023-04-25T09:06:17;6.00;;;1.30;;
29358;SDS011;16347;53.232;6.556;2023-04-25T09:08:49;10.07;;;1.45;;
29358;SDS011;16347;53.232;6.556;2023-04-25T09:11:18;12.25;;;2.05;;
29358;SDS011;16347;53.232;6.556;2023-04-25T09:13:50;18.67;;;1.60;;
29358;SDS011;16347;53.232;6.556;2023-04-25T09:16:56;13.40;;;2.20;;
29358;SDS011;16347;53.232;6.556;2023-04-25T09:20:08;8.60;;;1.80;;
29358;SDS011;16347;53.232;6.556;2023-04-25T09:22:38;15.88;;;1.63;;
29358;SDS011;16347;53.232;6.556;2023-04-25T09:25:10;17.02;;;1.70;;
29358;SDS011;16347;53.232;6.556;2023-04-25T09:27:51;16.85;;;1.67;;
29358;SDS011;16347;53.232;6.556;2023-04-25T09:30:28;22.05;;;2.60;;
29358;SDS011;16347;53.232;6.556;2023-04-25T09:33:04;10.52;;;1.95;;
29358;SDS011;16347;53.232;6.556;2023-04-25T09:35:37;11.73;;;1.88;;
29358;SDS011;16347;53.232;6.556;2023-04-25T09:38:09;15.10;;;1.55;;
29358;SDS011;16347;53.232;6.556;2023-04-25T09:40:59;13.30;;;1.40;;
29358;SDS011;16347;53.232;6.556;2023-04-25T09:43:38;8.52;;;1.58;;
29358;SDS011;16347;53.232;6.556;2023-04-25T09:46:07;16.48;;;1.63;;
29358;SDS011;16347;53.232;6.556;2023-04-25T09:48:41;9.07;;;1.55;;
29358;SDS011;16347;53.232;6.556;2023-04-25T09:51:25;8.05;;;1.45;;
29358;SDS011;16347;53.232;6.556;2023-04-25T09:53:55;12.90;;;2.30;;
29358;SDS011;16347;53.232;6.556;2023-04-25T09:56:46;10.43;;;1.73;;
29358;SDS011;16347;53.232;6.556;2023-04-25T09:59:20;14.95;;;2.00;;
29358;SDS011;16347;53.232;6.556;2023-04-25T10:01:49;15.20;;;1.70;;
29358;SDS011;16347;53.232;6.556;2023-04-25T10:04:26;17.35;;;2.40;;
29358;SDS011;16347;53.232;6.556;2023-04-25T10:07:04;9.10;;;2.10;;
29358;SDS011;16347;53.232;6.556;2023-04-25T10:09:35;8.80;;;1.50;;
29358;SDS011;16347;53.232;6.556;2023-04-25T10:12:06;17.58;;;1.70;;
29358;SDS011;16347;53.232;6.556;2023-04-25T10:14:34;10.45;;;1.92;;
29358;SDS011;16347;53.232;6.556;2023-04-25T10:17:02;8.68;;;1.50;;
29358;SDS011;16347;53.232;6.556;2023-04-25T10:19:31;12.13;;;1.90;;
29358;SDS011;16347;53.232;6.556;2023-04-25T10:22:07;9.82;;;1.65;;
29358;SDS011;16347;53.232;6.556;2023-04-25T10:24:39;16.52;;;2.60;;
29358;SDS011;16347;53.232;6.556;2023-04-25T10:27:08;19.88;;;2.95;;
29358;SDS011;16347;53.232;6.556;2023-04-25T10:29:36;15.00;;;1.85;;
29358;SDS011;16347;53.232;6.556;2023-04-25T10:32:04;16.17;;;2.22;;
29358;SDS011;16347;53.232;6.556;2023-04-25T10:34:39;16.23;;;2.13;;
29358;SDS011;16347;53.232;6.556;2023-04-25T10:37:10;9.95;;;1.77;;
29358;SDS011;16347;53.232;6.556;2023-04-25T10:39:38;13.38;;;2.20;;
29358;SDS011;16347;53.232;6.556;2023-04-25T10:42:07;11.82;;;1.48;;
29358;SDS011;16347;53.232;6.556;2023-04-25T10:44:36;15.70;;;2.22;;
29358;SDS011;16347;53.232;6.556;2023-04-25T10:47:06;8.73;;;1.60;;
29358;SDS011;16347;53.232;6.556;2023-04-25T10:49:37;7.78;;;1.42;;
29358;SDS011;16347;53.232;6.556;2023-04-25T10:52:15;8.80;;;1.40;;
29358;SDS011;16347;53.232;6.556;2023-04-25T10:54:47;6.82;;;1.27;;
29358;SDS011;16347;53.232;6.556;2023-04-25T10:57:27;11.18;;;1.50;;
29358;SDS011;16347;53.232;6.556;2023-04-25T11:00:00;4.82;;;1.20;;
29358;SDS011;16347;53.232;6.556;2023-04-25T11:02:36;5.28;;;1.40;;
29358;SDS011;16347;53.232;6.556;2023-04-25T11:05:05;13.95;;;1.90;;
29358;SDS011;16347;53.232;6.556;2023-04-25T11:07:37;9.43;;;1.80;;
29358;SDS011;16347;53.232;6.556;2023-04-25T11:10:21;12.63;;;1.63;;
29358;SDS011;16347;53.232;6.556;2023-04-25T11:12:53;4.88;;;1.58;;
29358;SDS011;16347;53.232;6.556;2023-04-25T11:15:22;15.88;;;1.27;;
29358;SDS011;16347;53.232;6.556;2023-04-25T11:17:50;8.13;;;1.52;;
29358;SDS011;16347;53.232;6.556;2023-04-25T11:20:18;11.93;;;2.17;;
29358;SDS011;16347;53.232;6.556;2023-04-25T11:22:48;9.85;;;1.70;;
29358;SDS011;16347;53.232;6.556;2023-04-25T11:25:18;9.38;;;1.27;;
29358;SDS011;16347;53.232;6.556;2023-04-25T11:27:50;17.60;;;2.10;;
29358;SDS011;16347;53.232;6.556;2023-04-25T11:30:19;11.57;;;1.65;;
29358;SDS011;16347;53.232;6.556;2023-04-25T11:32:48;9.25;;;1.25;;
29358;SDS011;16347;53.232;6.556;2023-04-25T11:35:16;13.75;;;1.77;;
29358;SDS011;16347;53.232;6.556;2023-04-25T11:37:44;10.95;;;1.65;;
29358;SDS011;16347;53.232;6.556;2023-04-25T11:40:13;9.02;;;1.40;;
29358;SDS011;16347;53.232;6.556;2023-04-25T11:42:43;12.23;;;1.88;;
29358;SDS011;16347;53.232;6.556;2023-04-25T11:45:12;10.38;;;1.90;;
29358;SDS011;16347;53.232;6.556;2023-04-25T11:47:40;13.65;;;1.67;;
29358;SDS011;16347;53.232;6.556;2023-04-25T11:50:09;8.38;;;1.65;;
29358;SDS011;16347;53.232;6.556;2023-04-25T11:52:38;5.22;;;1.50;;
29358;SDS011;16347;53.232;6.556;2023-04-25T11:55:07;15.13;;;2.08;;
29358;SDS011;16347;53.232;6.556;2023-04-25T11:57:38;9.18;;;1.38;;
29358;SDS011;16347;53.232;6.556;2023-04-25T12:00:08;12.82;;;1.90;;
29358;SDS011;16347;53.232;6.556;2023-04-25T12:02:44;11.48;;;1.52;;
29358;SDS011;16347;53.232;6.556;2023-04-25T12:05:14;17.90;;;1.60;;
29358;SDS011;16347;53.232;6.556;2023-04-25T12:07:46;12.27;;;1.58;;
29358;SDS011;16347;53.232;6.556;2023-04-25T12:10:17;10.23;;;1.73;;
29358;SDS011;16347;53.232;6.556;2023-04-25T12:12:48;10.48;;;1.98;;
29358;SDS011;16347;53.232;6.556;2023-04-25T12:15:16;7.45;;;1.30;;
29358;SDS011;16347;53.232;6.556;2023-04-25T12:17:47;9.88;;;1.67;;
29358;SDS011;16347;53.232;6.556;2023-04-25T12:20:16;10.38;;;1.70;;
29358;SDS011;16347;53.232;6.556;2023-04-25T12:22:46;9.93;;;1.67;;
29358;SDS011;16347;53.232;6.556;2023-04-25T12:28:12;7.63;;;1.33;;
29358;SDS011;16347;53.232;6.556;2023-04-25T12:30:54;14.05;;;2.10;;
29358;SDS011;16347;53.232;6.556;2023-04-25T12:33:24;7.20;;;1.30;;
29358;SDS011;16347;53.232;6.556;2023-04-25T12:35:53;10.65;;;1.75;;
29358;SDS011;16347;53.232;6.556;2023-04-25T12:38:25;19.90;;;2.28;;
29358;SDS011;16347;53.232;6.556;2023-04-25T12:40:55;9.45;;;1.55;;
29358;SDS011;16347;53.232;6.556;2023-04-25T12:43:25;11.43;;;1.75;;
29358;SDS011;16347;53.232;6.556;2023-04-25T12:45:54;14.57;;;1.63;;
29358;SDS011;16347;53.232;6.556;2023-04-25T12:48:23;10.60;;;1.52;;
29358;SDS011;16347;53.232;6.556;2023-04-25T12:50:51;5.35;;;1.25;;
29358;SDS011;16347;53.232;6.556;2023-04-25T12:53:20;11.00;;;1.63;;
29358;SDS011;16347;53.232;6.556;2023-04-25T12:55:49;7.63;;;1.40;;
29358;SDS011;16347;53.232;6.556;2023-04-25T12:58:18;10.63;;;1.98;;
29358;SDS011;16347;53.232;6.556;2023-04-25T13:00:48;12.48;;;1.63;;
29358;SDS011;16347;53.232;6.556;2023-04-25T13:03:16;13.60;;;1.92;;
29358;SDS011;16347;53.232;6.556;2023-04-25T13:05:45;9.40;;;2.38;;
29358;SDS011;16347;53.232;6.556;2023-04-25T13:08:13;8.45;;;1.35;;
29358;SDS011;16347;53.232;6.556;2023-04-25T13:10:42;12.25;;;1.60;;
29358;SDS011;16347;53.232;6.556;2023-04-25T13:13:09;6.10;;;1.05;;
29358;SDS011;16347;53.232;6.556;2023-04-25T13:15:37;12.02;;;1.55;;
29358;SDS011;16347;53.232;6.556;2023-04-25T13:18:07;9.60;;;1.48;;
29358;SDS011;16347;53.232;6.556;2023-04-25T13:20:35;11.30;;;1.80;;
29358;SDS011;16347;53.232;6.556;2023-04-25T13:23:03;10.18;;;1.77;;
29358;SDS011;16347;53.232;6.556;2023-04-25T13:25:31;7.70;;;1.58;;
29358;SDS011;16347;53.232;6.556;2023-04-25T13:28:00;16.15;;;2.63;;
29358;SDS011;16347;53.232;6.556;2023-04-25T13:30:29;11.05;;;1.73;;
29358;SDS011;16347;53.232;6.556;2023-04-25T13:32:57;10.43;;;1.63;;
29358;SDS011;16347;53.232;6.556;2023-04-25T13:35:31;15.77;;;1.80;;
29358;SDS011;16347;53.232;6.556;2023-04-25T13:38:00;16.20;;;2.13;;
29358;SDS011;16347;53.232;6.556;2023-04-25T13:40:28;13.05;;;2.45;;
29358;SDS011;16347;53.232;6.556;2023-04-25T13:42:56;15.13;;;1.98;;
29358;SDS011;16347;53.232;6.556;2023-04-25T13:45:24;16.20;;;2.05;;
29358;SDS011;16347;53.232;6.556;2023-04-25T13:47:52;14.55;;;1.75;;
29358;SDS011;16347;53.232;6.556;2023-04-25T13:50:20;2.95;;;1.02;;
29358;SDS011;16347;53.232;6.556;2023-04-25T13:52:50;7.82;;;1.10;;
29358;SDS011;16347;53.232;6.556;2023-04-25T13:55:18;6.97;;;1.10;;
29358;SDS011;16347;53.232;6.556;2023-04-25T13:57:46;5.90;;;1.23;;
29358;SDS011;16347;53.232;6.556;2023-04-25T14:00:14;12.52;;;2.05;;
29358;SDS011;16347;53.232;6.556;2023-04-25T14:02:43;12.82;;;1.63;;
29358;SDS011;16347;53.232;6.556;2023-04-25T14:05:11;11.05;;;2.00;;
29358;SDS011;16347;53.232;6.556;2023-04-25T14:07:39;12.25;;;1.55;;
29358;SDS011;16347;53.232;6.556;2023-04-25T14:10:09;9.10;;;2.10;;
29358;SDS011;16347;53.232;6.556;2023-04-25T14:12:37;12.90;;;1.85;;
29358;SDS011;16347;53.232;6.556;2023-04-25T14:15:05;9.38;;;1.77;;
29358;SDS011;16347;53.232;6.556;2023-04-25T14:17:33;14.93;;;1.92;;
29358;SDS011;16347;53.232;6.556;2023-04-25T14:20:01;8.85;;;1.52;;
29358;SDS011;16347;53.232;6.556;2023-04-25T14:22:32;4.85;;;1.42;;
29358;SDS011;16347;53.232;6.556;2023-04-25T14:25:00;16.13;;;1.42;;
29358;SDS011;16347;53.232;6.556;2023-04-25T14:27:29;5.22;;;1.50;;
29358;SDS011;16347;53.232;6.556;2023-04-25T14:29:57;12.30;;;1.50;;
29358;SDS011;16347;53.232;6.556;2023-04-25T14:32:25;12.35;;;1.77;;
29358;SDS011;16347;53.232;6.556;2023-04-25T14:34:53;10.90;;;1.40;;
29358;SDS011;16347;53.232;6.556;2023-04-25T14:37:20;9.63;;;1.45;;
29358;SDS011;16347;53.232;6.556;2023-04-25T14:39:48;9.05;;;1.52;;
29358;SDS011;16347;53.232;6.556;2023-04-25T14:42:16;6.32;;;1.40;;
29358;SDS011;16347;53.232;6.556;2023-04-25T14:44:45;15.02;;;2.22;;
29358;SDS011;16347;53.232;6.556;2023-04-25T14:47:13;7.10;;;2.00;;
29358;SDS011;16347;53.232;6.556;2023-04-25T14:49:41;9.00;;;1.67;;
29358;SDS011;16347;53.232;6.556;2023-04-25T14:52:09;7.53;;;1.20;;
29358;SDS011;16347;53.232;6.556;2023-04-25T14:54:37;8.43;;;1.60;;
29358;SDS011;16347;53.232;6.556;2023-04-25T14:57:05;12.38;;;1.65;;
29358;SDS011;16347;53.232;6.556;2023-04-25T14:59:34;11.35;;;1.58;;
29358;SDS011;16347;53.232;6.556;2023-04-25T15:02:03;8.55;;;1.35;;
29358;SDS011;16347;53.232;6.556;2023-04-25T15:04:31;26.33;;;2.05;;
29358;SDS011;16347;53.232;6.556;2023-04-25T15:06:59;15.40;;;1.75;;
29358;SDS011;16347;53.232;6.556;2023-04-25T15:09:27;8.73;;;1.35;;
29358;SDS011;16347;53.232;6.556;2023-04-25T15:11:55;10.25;;;1.83;;
29358;SDS011;16347;53.232;6.556;2023-04-25T15:14:24;9.43;;;1.70;;
29358;SDS011;16347;53.232;6.556;2023-04-25T15:16:52;16.55;;;1.75;;